Capitol Logistics 401


KSEA
Seattle-Tacoma International Airport
Seattle, Washington, US
KMIA
Miami International Airport
Miami, Florida, US

Route Details

Aircraft Information
Primary: Boeing 757-200SF
Backup: Not Available
Route Data
Distance: 2411nm
Sched. Duration: 5h 40m
Avg. Duration: 5h 24m (-16m)
Times Flown: 6
Recm'd Route: SEA NORMY J90 MWH DLN DDY BFF SGF MEM MGM SZW PLYER JUULI SSCOT5
Planned Altitude: 35,000ft
Origin Wx: KSEA 080553Z 29004KT 10SM OVC090 16/13 A3014 RMK AO2 RAE47 SLP212 P0000 60000 T01610133 10239 20161 50005
Dest. Wx: KMIA 080553Z 11007KT 10SM FEW030 BKN250 29/24 A3010 RMK AO2 SLP191 T02890244 10300 20289 58014
Notes:

Financial History
Total Freight: 565,171lbs
Average Load: 94,195lbs/flt
Fuel Used: 349,356lbs
Avg. Fuel Used: 58,226lbs/flt
Fuel Expense: $391,279
Avg. Fuel Expense: $65,213
Avg. Fuel Cost: $1.12/lbs
Total Gross Income: $956,139
Pilot Pay: $1,184
Total Expenses: $103,575
Total Revenue: $453,137
Average Revenue: $159,356.48